| time (UTC) | temp C | wind direction | speed KPH | gust KPH | rain 1hr cm | rain 24hr cm | rain mn cm | humidity % | barometer mb |
| 20260510184222 | 13 | 235 | 3.2 | 8.0 | 0.58 | 1.09 | 1.09 | 92 | 1007.8 |
| 20260510184015 | 13 | 231 | 4.8 | 11.3 | 0.61 | 1.09 | 1.09 | 92 | 1008.6 |
| 20260510183229 | 13 | 221 | 4.8 | 11.3 | 0.71 | 1.02 | 1.02 | 92 | 1008.0 |
| 20260510183029 | 13 | 221 | 3.2 | 8.0 | 0.71 | 1.04 | 1.04 | 92 | 1007.8 |
| 20260510183015 | 13 | 218 | 4.8 | 8.0 | 0.74 | 1.04 | 1.04 | 92 | 1008.8 |
| 20260510182212 | 13 | 242 | 3.2 | 11.3 | 0.74 | 0.94 | 0.94 | 92 | 1008.1 |
| 20260510182016 | 13 | 215 | 3.2 | 11.3 | 0.79 | 0.99 | 0.99 | 92 | 1008.9 |
| 20260510181615 | 13 | 233 | 3.2 | 12.9 | 0.79 | 0.94 | 0.94 | 92 | 1008.0 |
| 20260510181219 | 13 | 230 | 4.8 | 14.5 | 0.76 | 0.89 | 0.89 | 92 | 1008.2 |
| 20260510181015 | 13 | 208 | 4.8 | 12.9 | 0.76 | 0.89 | 0.89 | 91 | 1009.1 |
| 20260510180212 | 13 | 298 | 6.4 | 16.1 | 0.71 | 0.79 | 0.79 | 91 | 1008.2 |
| 20260510180030 | 13 | 185 | 4.8 | 12.9 | 0.71 | 0.81 | 0.81 | 91 | 1008.1 |
| 20260510180016 | 13 | 226 | 6.4 | 16.1 | 0.71 | 0.81 | 0.81 | 91 | 1009.1 |
| 20260510175230 | 13 | 265 | 8.0 | 19.3 | 0.66 | 0.69 | 0.69 | 90 | 1008.3 |
| 20260510175015 | 14 | 220 | 6.4 | 17.7 | 0.69 | 0.71 | 0.71 | 90 | 1009.0 |
| 20260510174505 | 13 | 221 | 8.0 | 24.1 | 0.56 | 0.58 | 0.58 | 89 | 1007.9 |
| 20260510174217 | 14 | 212 | 8.0 | 19.3 | 0.41 | 0.43 | 0.43 | 89 | 1008.1 |
| 20260510174035 | 15 | 205 | 8.0 | 19.3 | 0.48 | 0.51 | 0.51 | 90 | 1008.8 |
| 20260510173220 | 15 | 232 | 6.4 | 20.9 | 0.28 | 0.28 | 0.28 | 89 | 1007.6 |
| 20260510173104 | 15 | 249 | 4.8 | 19.3 | 0.33 | 0.33 | 0.33 | 89 | 1007.4 |
| 20260510173035 | 15 | 201 | 6.4 | 22.5 | 0.30 | 0.30 | 0.30 | 88 | 1008.4 |
| 20260510172226 | 15 | 188 | 6.4 | 17.7 | 0.15 | 0.15 | 0.15 | 88 | 1007.4 |
| 20260510172036 | 16 | 164 | 8.0 | 20.9 | 0.20 | 0.20 | 0.20 | 87 | 1008.1 |
| 20260510171620 | 15 | 127 | 3.2 | 16.1 | 0.15 | 0.15 | 0.15 | 87 | 1006.9 |
| 20260510171234 | 16 | 194 | 6.4 | 16.1 | 0.15 | 0.15 | 0.15 | 86 | 1006.9 |
| 20260510171016 | 16 | 177 | 6.4 | 16.1 | 0.15 | 0.15 | 0.15 | 85 | 1007.7 |
| 20260510170230 | 16 | 162 | 6.4 | 14.5 | 0.08 | 0.08 | 0.08 | 82 | 1006.2 |
| 20260510170025 | 16 | 220 | 6.4 | 16.1 | 0.10 | 0.10 | 0.10 | 82 | 1005.9 |
| 20260510170016 | 16 | 226 | 6.4 | 16.1 | 0.10 | 0.10 | 0.10 | 80 | 1007.0 |
| 20260510165210 | 17 | 232 | 4.8 | 16.1 | 0.03 | 0.03 | 0.03 | 78 | 1005.9 |
| 20260510165016 | 17 | 228 | 4.8 | 19.3 | 0.03 | 0.03 | 0.03 | 76 | 1006.7 |
| 20260510164526 | 17 | 262 | 3.2 | 19.3 | 0.03 | 0.03 | 0.03 | 75 | 1005.6 |
| 20260510164219 | 18 | 290 | 4.8 | 12.9 | 0.00 | 0.00 | 0.00 | 71 | 1005.9 |
| 20260510164015 | 18 | 229 | 4.8 | 14.5 | 0.03 | 0.03 | 0.03 | 70 | 1006.9 |
| 20260510163219 | 20 | 223 | 4.8 | 11.3 | 0.00 | 0.00 | 0.00 | 66 | 1006.0 |
| 20260510163109 | 20 | 225 | 4.8 | 12.9 | 0.00 | 0.00 | 0.00 | 65 | 1005.7 |
| 20260510163015 | 20 | 237 | 4.8 | 11.3 | 0.00 | 0.00 | 0.00 | 62 | 1006.9 |
| 20260510162222 | 21 | 179 | 3.2 | 8.0 | 0.00 | 0.00 | 0.00 | 55 | 1006.1 |
| 20260510162018 | 22 | 223 | 3.2 | 8.0 | 0.00 | 0.00 | 0.00 | 53 | 1006.9 |
| 20260510161502 | 22 | 233 | 1.6 | 4.8 | 0.00 | 0.00 | 0.00 | 52 | 1005.7 |
| 20260510161212 | 22 | 212 | 1.6 | 6.4 | 0.00 | 0.00 | 0.00 | 51 | 1006.0 |
| 20260510161018 | 22 | 198 | 1.6 | 3.2 | 0.00 | 0.00 | 0.00 | 50 | 1006.9 |
| 20260510160518 | 23 | 16 | 0.0 | 1.6 | 0.00 | 0.00 | 0.00 | 48 | 1006.9 |
| 20260510160243 | 23 | 5 | 3.2 | 9.7 | 0.00 | 0.00 | 0.00 | 47 | 1006.1 |
| 20260510160023 | 22 | 5 | 1.6 | 8.0 | 0.00 | 0.00 | 0.00 | 46 | 1005.8 |
| 20260510155538 | 23 | 13 | 4.8 | 8.0 | 0.00 | 0.00 | 0.00 | 45 | 1007.0 |
| 20260510155215 | 23 | 22 | 4.8 | 9.7 | 0.00 | 0.00 | 0.00 | 45 | 1006.1 |
| 20260510154518 | 23 | 14 | 4.8 | 11.3 | 0.00 | 0.00 | 0.00 | 45 | 1007.1 |
| 20260510154507 | 23 | 355 | 3.2 | 9.7 | 0.00 | 0.00 | 0.00 | 45 | 1005.9 |
| 20260510154218 | 23 | 10 | 4.8 | 12.9 | 0.00 | 0.00 | 0.00 | 45 | 1006.2 |
| 20260510153515 | 23 | 38 | 3.2 | 12.9 | 0.00 | 0.00 | 0.00 | 44 | 1007.2 |
| 20260510153209 | 23 | 5 | 3.2 | 12.9 | 0.00 | 0.00 | 0.00 | 44 | 1006.4 |
| 20260510153029 | 23 | 11 | 3.2 | 12.9 | 0.00 | 0.00 | 0.00 | 44 | 1006.1 |
| 20260510152515 | 23 | 38 | 4.8 | 4.8 | 0.00 | 0.00 | 0.00 | 45 | 1007.4 |
| 20260510152238 | 23 | 333 | 4.8 | 14.5 | 0.00 | 0.00 | 0.00 | 46 | 1006.6 |
| 20260510151530 | 23 | 335 | 4.8 | 14.5 | 0.00 | 0.00 | 0.00 | 46 | 1006.3 |
| 20260510151515 | 23 | 30 | 3.2 | 8.0 | 0.00 | 0.00 | 0.00 | 45 | 1007.6 |
| 20260510151223 | 23 | 5 | 4.8 | 16.1 | 0.00 | 0.00 | 0.00 | 45 | 1006.6 |
| 20260510150214 | 23 | 339 | 4.8 | 16.1 | 0.00 | 0.00 | 0.00 | 45 | 1006.7 |
| 20260510150049 | 23 | 35 | 4.8 | 16.1 | 0.00 | 0.00 | 0.00 | 46 | 1006.5 |
| 20260510150035 | 23 | 359 | 4.8 | 8.0 | 0.00 | 0.00 | 0.00 | 45 | 1007.8 |
| 20260510145515 | 23 | 26 | 3.2 | 8.0 | 0.00 | 0.00 | 0.00 | 46 | 1007.9 |
| 20260510145222 | 23 | 5 | 6.4 | 14.5 | 0.00 | 0.00 | 0.00 | 46 | 1006.9 |
| 20260510145015 | 23 | 1 | 8.0 | 16.1 | 0.00 | 0.00 | 0.00 | 46 | 1007.9 |
| 20260510144545 | 23 | 349 | 6.4 | 14.5 | 0.00 | 0.00 | 0.00 | 46 | 1006.7 |
| 20260510144515 | 23 | 2 | 6.4 | 14.5 | 0.00 | 0.00 | 0.00 | 46 | 1008.0 |
| 20260510144221 | 23 | 350 | 4.8 | 11.3 | 0.00 | 0.00 | 0.00 | 46 | 1007.0 |
| 20260510143515 | 23 | 351 | 3.2 | 4.8 | 0.00 | 0.00 | 0.00 | 45 | 1008.0 |
| 20260510143211 | 23 | 319 | 6.4 | 12.9 | 0.00 | 0.00 | 0.00 | 45 | 1007.1 |
| 20260510143053 | 23 | 11 | 6.4 | 14.5 | 0.00 | 0.00 | 0.00 | 45 | 1006.8 |
| 20260510142515 | 23 | 13 | 6.4 | 14.5 | 0.00 | 0.00 | 0.00 | 43 | 1008.2 |
| 20260510142232 | 23 | 34 | 4.8 | 12.9 | 0.00 | 0.00 | 0.00 | 44 | 1007.3 |
| 20260510141542 | 23 | 18 | 3.2 | 12.9 | 0.00 | 0.00 | 0.00 | 44 | 1007.0 |
| 20260510141515 | 23 | 12 | 4.8 | 12.9 | 0.00 | 0.00 | 0.00 | 42 | 1008.3 |
| 20260510141230 | 23 | 61 | 6.4 | 12.9 | 0.00 | 0.00 | 0.00 | 42 | 1007.4 |
| 20260510140515 | 23 | 19 | 6.4 | 11.3 | 0.00 | 0.00 | 0.00 | 41 | 1008.4 |
| 20260510140211 | 23 | 355 | 6.4 | 16.1 | 0.00 | 0.00 | 0.00 | 41 | 1007.4 |
| 20260510140107 | 23 | 5 | 4.8 | 16.1 | 0.00 | 0.00 | 0.00 | 42 | 1007.2 |
| 20260510135515 | 23 | 7 | 4.8 | 17.7 | 0.00 | 0.00 | 0.00 | 42 | 1008.5 |
| 20260510134528 | 23 | 355 | 9.7 | 20.9 | 0.00 | 0.00 | 0.00 | 41 | 1007.4 |
| 20260510134515 | 23 | 5 | 9.7 | 20.9 | 0.00 | 0.00 | 0.00 | 42 | 1008.6 |
| 20260510134223 | 23 | 334 | 8.0 | 17.7 | 0.00 | 0.00 | 0.00 | 42 | 1007.7 |
| 20260510133515 | 23 | 11 | 6.4 | 20.9 | 0.00 | 0.00 | 0.00 | 46 | 1008.7 |
| 20260510133018 | 23 | 30 | 4.8 | 14.5 | 0.00 | 0.00 | 0.00 | 47 | 1007.6 |
| 20260510132515 | 23 | 10 | 6.4 | 14.5 | 0.00 | 0.00 | 0.00 | 46 | 1008.8 |
| 20260510132209 | 23 | 59 | 8.0 | 17.7 | 0.00 | 0.00 | 0.00 | 46 | 1007.9 |
| 20260510131528 | 23 | 38 | 8.0 | 17.7 | 0.00 | 0.00 | 0.00 | 47 | 1007.8 |
| 20260510131515 | 23 | 354 | 8.0 | 12.9 | 0.00 | 0.00 | 0.00 | 47 | 1008.9 |
| 20260510131224 | 23 | 349 | 8.0 | 17.7 | 0.00 | 0.00 | 0.00 | 47 | 1008.1 |
| 20260510130515 | 23 | 1 | 9.7 | 19.3 | 0.00 | 0.00 | 0.00 | 48 | 1009.0 |
| 20260510130219 | 23 | 331 | 8.0 | 17.7 | 0.00 | 0.00 | 0.00 | 48 | 1008.2 |
| 20260510130018 | 23 | 5 | 9.7 | 20.9 | 0.00 | 0.00 | 0.00 | 48 | 1008.0 |
| 20260510125515 | 23 | 10 | 9.7 | 20.9 | 0.00 | 0.00 | 0.00 | 48 | 1009.1 |
| 20260510124515 | 23 | 7 | 8.0 | 16.1 | 0.00 | 0.00 | 0.00 | 50 | 1009.2 |
| 20260510124508 | 23 | 331 | 6.4 | 16.1 | 0.00 | 0.00 | 0.00 | 50 | 1008.1 |
| 20260510124216 | 23 | 280 | 8.0 | 20.9 | 0.00 | 0.00 | 0.00 | 50 | 1008.4 |
| 20260510123515 | 23 | 7 | 9.7 | 25.7 | 0.00 | 0.00 | 0.00 | 50 | 1009.3 |
| 20260510123231 | 23 | 5 | 9.7 | 17.7 | 0.00 | 0.00 | 0.00 | 50 | 1008.5 |
| 20260510123034 | 22 | 360 | 9.7 | 16.1 | 0.00 | 0.00 | 0.00 | 50 | 1008.3 |
| 20260510122515 | 22 | 10 | 8.0 | 17.7 | 0.00 | 0.00 | 0.00 | 52 | 1009.4 |
| 20260510122218 | 22 | 0 | 9.7 | 17.7 | 0.00 | 0.00 | 0.00 | 51 | 1008.6 |
| 20260510121515 | 22 | 6 | 9.7 | 14.5 | 0.00 | 0.00 | 0.00 | 52 | 1009.6 |
| 20260510121512 | 22 | 17 | 8.0 | 19.3 | 0.00 | 0.00 | 0.00 | 52 | 1008.4 |
| 20260510121015 | 22 | 6 | 9.7 | 19.3 | 0.00 | 0.00 | 0.00 | 52 | 1009.7 |
| 20260510120226 | 22 | 355 | 6.4 | 16.1 | 0.00 | 0.00 | 0.00 | 52 | 1009.0 |
| 20260510120035 | 22 | 29 | 6.4 | 17.7 | 0.00 | 0.00 | 0.00 | 52 | 1009.8 |
| 20260510120026 | 22 | 60 | 4.8 | 17.7 | 0.00 | 0.00 | 0.00 | 52 | 1008.7 |
| 20260510115210 | 22 | 355 | 8.0 | 17.7 | 0.00 | 0.00 | 0.00 | 51 | 1009.0 |
| 20260510115015 | 22 | 14 | 8.0 | 17.7 | 0.00 | 0.00 | 0.00 | 51 | 1009.9 |
| 20260510114524 | 22 | 325 | 8.0 | 17.7 | 0.00 | 0.00 | 0.00 | 51 | 1008.9 |
| 20260510114210 | 22 | 18 | 6.4 | 17.7 | 0.00 | 0.00 | 0.00 | 52 | 1009.1 |
| 20260510114015 | 22 | 17 | 4.8 | 12.9 | 0.00 | 0.00 | 0.00 | 51 | 1010.0 |
| 20260510113036 | 22 | 350 | 8.0 | 14.5 | 0.00 | 0.00 | 0.00 | 53 | 1010.0 |
| 20260510112515 | 22 | 9 | 8.0 | 12.9 | 0.00 | 0.00 | 0.00 | 52 | 1010.1 |
| 20260510112222 | 22 | 355 | 8.0 | 20.9 | 0.00 | 0.00 | 0.00 | 54 | 1009.3 |
| 20260510112035 | 22 | 12 | 6.4 | 14.5 | 0.00 | 0.00 | 0.00 | 53 | 1010.1 |
| 20260510111540 | 22 | 5 | 8.0 | 20.9 | 0.00 | 0.00 | 0.00 | 54 | 1009.2 |
| 20260510111515 | 22 | 8 | 9.7 | 20.9 | 0.00 | 0.00 | 0.00 | 54 | 1010.2 |
| 20260510111213 | 22 | 41 | 9.7 | 17.7 | 0.00 | 0.00 | 0.00 | 55 | 1009.4 |
| 20260510110515 | 22 | 8 | 9.7 | 17.7 | 0.00 | 0.00 | 0.00 | 54 | 1010.4 |
| 20260510110228 | 22 | 30 | 8.0 | 17.7 | 0.00 | 0.00 | 0.00 | 53 | 1009.6 |
| 20260510110050 | 22 | 17 | 9.7 | 17.7 | 0.00 | 0.00 | 0.00 | 55 | 1009.5 |
| 20260510105515 | 22 | 9 | 6.4 | 14.5 | 0.00 | 0.00 | 0.00 | 56 | 1010.4 |
| 20260510105225 | 22 | 36 | 6.4 | 19.3 | 0.00 | 0.00 | 0.00 | 56 | 1009.8 |
| 20260510105055 | 21 | 358 | 8.0 | 20.9 | 0.00 | 0.00 | 0.00 | 57 | 1010.4 |
| 20260510104548 | 21 | 29 | 6.4 | 19.3 | 0.00 | 0.00 | 0.00 | 57 | 1009.5 |
| 20260510104217 | 21 | 30 | 8.0 | 16.1 | 0.00 | 0.00 | 0.00 | 57 | 1009.8 |
| 20260510104015 | 21 | 8 | 9.7 | 19.3 | 0.00 | 0.00 | 0.00 | 55 | 1010.6 |
| 20260510103214 | 21 | 0 | 9.7 | 16.1 | 0.00 | 0.00 | 0.00 | 56 | 1010.0 |
| 20260510103053 | 21 | 19 | 9.7 | 17.7 | 0.00 | 0.00 | 0.00 | 56 | 1009.8 |
| 20260510103035 | 21 | 9 | 11.3 | 17.7 | 0.00 | 0.00 | 0.00 | 55 | 1010.7 |
| 20260510102015 | 21 | 11 | 9.7 | 17.7 | 0.00 | 0.00 | 0.00 | 56 | 1010.7 |
| 20260510101508 | 21 | 340 | 6.4 | 17.7 | 0.00 | 0.00 | 0.00 | 56 | 1009.9 |
| 20260510101229 | 21 | 355 | 9.7 | 16.1 | 0.00 | 0.00 | 0.00 | 56 | 1010.2 |
| 20260510101015 | 21 | 4 | 9.7 | 17.7 | 0.00 | 0.00 | 0.00 | 57 | 1010.8 |
| 20260510100229 | 21 | 9 | 8.0 | 14.5 | 0.00 | 0.00 | 0.00 | 57 | 1010.3 |
| 20260510100045 | 21 | 355 | 4.8 | 14.5 | 0.00 | 0.00 | 0.00 | 58 | 1010.0 |
| 20260510100015 | 21 | 6 | 6.4 | 14.5 | 0.00 | 0.00 | 0.00 | 58 | 1010.9 |
| 20260510095216 | 21 | 42 | 8.0 | 16.1 | 0.00 | 0.00 | 0.00 | 58 | 1010.3 |
| 20260510095015 | 20 | 14 | 8.0 | 16.1 | 0.00 | 0.00 | 0.00 | 58 | 1010.9 |
| 20260510094509 | 20 | 47 | 6.4 | 17.7 | 0.00 | 0.00 | 0.00 | 59 | 1010.1 |
| 20260510094015 | 20 | 2 | 9.7 | 17.7 | 0.00 | 0.00 | 0.00 | 58 | 1011.0 |
| 20260510093215 | 20 | 347 | 9.7 | 19.3 | 0.00 | 0.00 | 0.00 | 58 | 1010.4 |
| 20260510093042 | 20 | 345 | 9.7 | 22.5 | 0.00 | 0.00 | 0.00 | 57 | 1010.2 |
| 20260510093015 | 20 | 3 | 11.3 | 22.5 | 0.00 | 0.00 | 0.00 | 57 | 1011.2 |
| 20260510092230 | 20 | 5 | 9.7 | 17.7 | 0.00 | 0.00 | 0.00 | 58 | 1010.6 |
| 20260510092015 | 20 | 6 | 9.7 | 22.5 | 0.00 | 0.00 | 0.00 | 59 | 1011.3 |
| 20260510091526 | 19 | 22 | 8.0 | 17.7 | 0.00 | 0.00 | 0.00 | 59 | 1010.4 |
| 20260510091015 | 20 | 7 | 6.4 | 17.7 | 0.00 | 0.00 | 0.00 | 60 | 1011.5 |
| 20260510090224 | 20 | 331 | 8.0 | 16.1 | 0.00 | 0.00 | 0.00 | 60 | 1010.7 |
| 20260510090041 | 19 | 5 | 8.0 | 17.7 | 0.00 | 0.00 | 0.00 | 60 | 1010.5 |
| 20260510090035 | 20 | 9 | 9.7 | 16.1 | 0.00 | 0.00 | 0.00 | 59 | 1011.6 |
| 20260510085015 | 19 | 6 | 6.4 | 16.1 | 0.00 | 0.00 | 0.00 | 61 | 1011.7 |
| 20260510084510 | 19 | 333 | 4.8 | 16.1 | 0.00 | 0.00 | 0.00 | 62 | 1010.6 |
| 20260510084221 | 19 | 57 | 9.7 | 17.7 | 0.00 | 0.00 | 0.00 | 62 | 1010.9 |
| 20260510084015 | 19 | 5 | 9.7 | 22.5 | 0.00 | 0.00 | 0.00 | 61 | 1011.8 |
| 20260510083220 | 18 | 344 | 6.4 | 12.9 | 0.00 | 0.00 | 0.00 | 62 | 1011.0 |
| 20260510083023 | 18 | 5 | 4.8 | 14.5 | 0.00 | 0.00 | 0.00 | 63 | 1010.8 |
| 20260510083015 | 18 | 8 | 6.4 | 14.5 | 0.00 | 0.00 | 0.00 | 62 | 1011.8 |
| 20260510082226 | 18 | 9 | 8.0 | 19.3 | 0.00 | 0.00 | 0.00 | 62 | 1011.0 |
| 20260510082015 | 18 | 1 | 6.4 | 14.5 | 0.00 | 0.00 | 0.00 | 63 | 1011.9 |
| 20260510081541 | 18 | 9 | 6.4 | 19.3 | 0.00 | 0.00 | 0.00 | 63 | 1010.9 |
| 20260510081015 | 18 | 8 | 8.0 | 19.3 | 0.00 | 0.00 | 0.00 | 63 | 1012.0 |
| 20260510080226 | 18 | 336 | 8.0 | 19.3 | 0.00 | 0.00 | 0.00 | 63 | 1011.3 |
| 20260510080049 | 18 | 355 | 6.4 | 19.3 | 0.00 | 0.00 | 0.00 | 63 | 1011.1 |
| 20260510080015 | 18 | 10 | 6.4 | 19.3 | 0.00 | 0.00 | 0.00 | 64 | 1012.1 |
| 20260510075209 | 18 | 5 | 8.0 | 14.5 | 0.00 | 0.00 | 0.00 | 64 | 1011.4 |
| 20260510075015 | 17 | 8 | 6.4 | 12.9 | 0.00 | 0.00 | 0.00 | 64 | 1012.2 |
| 20260510074550 | 17 | 331 | 6.4 | 19.3 | 0.00 | 0.00 | 0.00 | 64 | 1011.2 |
| 20260510074015 | 17 | 7 | 8.0 | 14.5 | 0.00 | 0.00 | 0.00 | 65 | 1012.2 |
| 20260510073100 | 17 | 336 | 3.2 | 14.5 | 0.00 | 0.00 | 0.00 | 66 | 1011.4 |
| 20260510073015 | 17 | 3 | 6.4 | 14.5 | 0.00 | 0.00 | 0.00 | 66 | 1012.3 |
| 20260510072217 | 17 | 26 | 8.0 | 16.1 | 0.00 | 0.00 | 0.00 | 66 | 1011.6 |
| 20260510072015 | 17 | 5 | 6.4 | 17.7 | 0.00 | 0.00 | 0.00 | 66 | 1012.3 |
| 20260510071524 | 17 | 360 | 9.7 | 17.7 | 0.00 | 0.00 | 0.00 | 66 | 1011.4 |
| 20260510071216 | 17 | 342 | 8.0 | 17.7 | 0.00 | 0.00 | 0.00 | 68 | 1011.6 |
| 20260510071035 | 16 | 357 | 8.0 | 16.1 | 0.00 | 0.00 | 0.00 | 68 | 1012.3 |
| 20260510070216 | 16 | 346 | 8.0 | 17.7 | 0.00 | 0.00 | 0.00 | 68 | 1011.7 |
| 20260510070040 | 16 | 10 | 8.0 | 17.7 | 0.00 | 0.00 | 0.00 | 68 | 1011.6 |
| 20260510070015 | 16 | 6 | 8.0 | 17.7 | 0.00 | 0.00 | 0.00 | 69 | 1012.4 |
| 20260510065015 | 16 | 7 | 8.0 | 17.7 | 0.00 | 0.00 | 0.00 | 69 | 1012.4 |
| 20260510064512 | 16 | 351 | 6.4 | 17.7 | 0.00 | 0.00 | 0.00 | 69 | 1011.6 |
| 20260510064015 | 16 | 5 | 6.4 | 14.5 | 0.00 | 0.00 | 0.00 | 70 | 1012.4 |
| 20260510063015 | 15 | 5 | 6.4 | 16.1 | 0.00 | 0.00 | 0.00 | 71 | 1012.3 |
| 20260510063013 | 15 | 15 | 6.4 | 16.1 | 0.00 | 0.00 | 0.00 | 70 | 1011.6 |
| 20260510062015 | 15 | 9 | 6.4 | 14.5 | 0.00 | 0.00 | 0.00 | 72 | 1012.3 |
| 20260510061521 | 15 | 360 | 6.4 | 14.5 | 0.00 | 0.00 | 0.00 | 72 | 1011.5 |
| 20260510061223 | 15 | 5 | 6.4 | 12.9 | 0.00 | 0.00 | 0.00 | 74 | 1011.8 |
| 20260510061035 | 15 | 4 | 6.4 | 12.9 | 0.00 | 0.00 | 0.00 | 74 | 1012.3 |
| 20260510060232 | 14 | 5 | 6.4 | 11.3 | 0.00 | 0.00 | 0.00 | 74 | 1011.7 |
| 20260510060036 | 14 | 15 | 4.8 | 9.7 | 0.00 | 0.00 | 0.00 | 75 | 1011.5 |
| 20260510060015 | 14 | 2 | 4.8 | 9.7 | 0.00 | 0.00 | 0.00 | 75 | 1012.3 |
| 20260510055210 | 13 | 25 | 4.8 | 8.0 | 0.00 | 0.00 | 0.00 | 76 | 1011.8 |
| 20260510055038 | 13 | 2 | 4.8 | 11.3 | 0.00 | 0.00 | 0.00 | 77 | 1012.4 |
| 20260510054509 | 13 | 30 | 4.8 | 8.0 | 0.00 | 0.00 | 0.00 | 77 | 1011.6 |
| 20260510054225 | 13 | 16 | 3.2 | 8.0 | 0.00 | 0.00 | 0.00 | 77 | 1011.8 |
| 20260510054017 | 13 | 4 | 3.2 | 8.0 | 0.00 | 0.00 | 0.00 | 77 | 1012.3 |
| 20260510053220 | 13 | 5 | 4.8 | 8.0 | 0.00 | 0.00 | 0.00 | 77 | 1011.8 |
| 20260510053105 | 13 | 15 | 3.2 | 8.0 | 0.00 | 0.00 | 0.00 | 77 | 1011.5 |
| 20260510053018 | 13 | 1 | 4.8 | 8.0 | 0.00 | 0.00 | 0.00 | 77 | 1012.3 |
| 20260510052215 | 13 | 32 | 3.2 | 6.4 | 0.00 | 0.00 | 0.00 | 77 | 1011.7 |
| 20260510052017 | 13 | 12 | 3.2 | 4.8 | 0.00 | 0.00 | 0.00 | 77 | 1012.3 |
| 20260510051610 | 13 | 15 | 1.6 | 6.4 | 0.00 | 0.00 | 0.00 | 78 | 1011.6 |
| 20260510051017 | 13 | 10 | 3.2 | 6.4 | 0.00 | 0.00 | 0.00 | 77 | 1012.3 |
| 20260510050047 | 13 | 5 | 1.6 | 6.4 | 0.00 | 0.00 | 0.00 | 78 | 1011.5 |
| 20260510050037 | 13 | 3 | 3.2 | 4.8 | 0.00 | 0.00 | 0.00 | 78 | 1012.3 |
| 20260510045208 | 13 | 5 | 3.2 | 8.0 | 0.00 | 0.00 | 0.00 | 78 | 1011.8 |
| 20260510045017 | 13 | 11 | 3.2 | 8.0 | 0.00 | 0.00 | 0.00 | 77 | 1012.4 |
| 20260510044533 | 12 | 15 | 3.2 | 6.4 | 0.00 | 0.00 | 0.00 | 77 | 1011.6 |
| 20260510044216 | 13 | 355 | 3.2 | 6.4 | 0.00 | 0.00 | 0.00 | 77 | 1011.9 |
| 20260510044015 | 13 | 12 | 3.2 | 4.8 | 0.00 | 0.00 | 0.00 | 77 | 1012.4 |
| 20260510043224 | 13 | 5 | 3.2 | 6.4 | 0.00 | 0.00 | 0.00 | 77 | 1012.0 |
| 20260510043023 | 12 | 19 | 1.6 | 6.4 | 0.00 | 0.00 | 0.00 | 77 | 1011.7 |
| 20260510043015 | 13 | 3 | 3.2 | 6.4 | 0.00 | 0.00 | 0.00 | 77 | 1012.5 |
| 20260510042226 | 13 | 13 | 3.2 | 6.4 | 0.00 | 0.00 | 0.00 | 77 | 1012.0 |
| 20260510042015 | 13 | 2 | 3.2 | 6.4 | 0.00 | 0.00 | 0.00 | 76 | 1012.6 |
| 20260510041609 | 13 | 351 | 1.6 | 6.4 | 0.00 | 0.00 | 0.00 | 76 | 1011.8 |
| 20260510041214 | 13 | 17 | 3.2 | 6.4 | 0.00 | 0.00 | 0.00 | 76 | 1012.0 |
| 20260510041015 | 13 | 20 | 1.6 | 6.4 | 0.00 | 0.00 | 0.00 | 76 | 1012.5 |
| 20260510040228 | 13 | 28 | 3.2 | 6.4 | 0.00 | 0.00 | 0.00 | 76 | 1012.0 |
| 20260510040015 | 13 | 12 | 3.2 | 6.4 | 0.00 | 0.00 | 0.00 | 76 | 1012.5 |
| 20260510040001 | 13 | 360 | 1.6 | 6.4 | 0.00 | 0.00 | 0.00 | 76 | 1011.7 |
| 20260510035215 | 13 | 0 | 3.2 | 6.4 | 0.00 | 0.00 | 0.00 | 75 | 1012.0 |
| 20260510035035 | 13 | 7 | 3.2 | 6.4 | 0.00 | 0.00 | 0.00 | 75 | 1012.5 |
| 20260510034517 | 13 | 346 | 1.6 | 6.4 | 0.00 | 0.00 | 0.00 | 75 | 1011.7 |
| 20260510034216 | 13 | 15 | 4.8 | 6.4 | 0.00 | 0.00 | 0.00 | 75 | 1012.0 |
| 20260510034017 | 13 | 4 | 4.8 | 6.4 | 0.00 | 0.00 | 0.00 | 75 | 1012.6 |
| 20260510033015 | 13 | 10 | 3.2 | 6.4 | 0.00 | 0.00 | 0.00 | 75 | 1012.7 |
| 20260510032222 | 13 | 19 | 3.2 | 8.0 | 0.00 | 0.00 | 0.00 | 75 | 1012.2 |
| 20260510032017 | 13 | 7 | 3.2 | 6.4 | 0.00 | 0.00 | 0.00 | 74 | 1012.7 |
| 20260510031523 | 13 | 5 | 3.2 | 8.0 | 0.00 | 0.00 | 0.00 | 74 | 1011.9 |
| 20260510031223 | 13 | 26 | 4.8 | 12.9 | 0.00 | 0.00 | 0.00 | 74 | 1012.2 |
| 20260510031037 | 13 | 8 | 4.8 | 8.0 | 0.00 | 0.00 | 0.00 | 74 | 1012.8 |
| 20260510030019 | 13 | 355 | 3.2 | 12.9 | 0.00 | 0.00 | 0.00 | 74 | 1012.0 |
| 20260510030017 | 13 | 4 | 4.8 | 12.9 | 0.00 | 0.00 | 0.00 | 74 | 1012.8 |
| 20260510025219 | 14 | 0 | 3.2 | 8.0 | 0.00 | 0.00 | 0.00 | 74 | 1012.3 |
| 20260510025017 | 14 | 14 | 3.2 | 8.0 | 0.00 | 0.00 | 0.00 | 73 | 1012.8 |
| 20260510024522 | 13 | 25 | 3.2 | 8.0 | 0.00 | 0.00 | 0.00 | 73 | 1012.0 |
| 20260510024214 | 14 | 333 | 3.2 | 6.4 | 0.00 | 0.00 | 0.00 | 73 | 1012.3 |
| 20260510024017 | 14 | 15 | 3.2 | 6.4 | 0.00 | 0.00 | 0.00 | 73 | 1012.9 |
| 20260510023221 | 14 | 29 | 3.2 | 6.4 | 0.00 | 0.00 | 0.00 | 73 | 1012.3 |
| 20260510023059 | 14 | 5 | 3.2 | 6.4 | 0.00 | 0.00 | 0.00 | 73 | 1012.0 |
| 20260510023017 | 14 | 12 | 3.2 | 8.0 | 0.00 | 0.00 | 0.00 | 73 | 1012.8 |
| 20260510022228 | 14 | 5 | 3.2 | 6.4 | 0.00 | 0.00 | 0.00 | 72 | 1012.3 |
| 20260510022015 | 14 | 5 | 3.2 | 8.0 | 0.00 | 0.00 | 0.00 | 72 | 1012.9 |
| 20260510021620 | 14 | 32 | 3.2 | 8.0 | 0.00 | 0.00 | 0.00 | 72 | 1012.1 |
| 20260510021214 | 14 | 349 | 3.2 | 8.0 | 0.00 | 0.00 | 0.00 | 72 | 1012.4 |
| 20260510021017 | 15 | 14 | 3.2 | 8.0 | 0.00 | 0.00 | 0.00 | 72 | 1012.9 |
| 20260510020226 | 15 | 355 | 4.8 | 8.0 | 0.00 | 0.00 | 0.00 | 72 | 1012.4 |
| 20260510020037 | 15 | 10 | 3.2 | 8.0 | 0.00 | 0.00 | 0.00 | 72 | 1012.9 |
| 20260510020009 | 14 | 28 | 3.2 | 8.0 | 0.00 | 0.00 | 0.00 | 72 | 1012.1 |
| 20260510015219 | 14 | 355 | 3.2 | 8.0 | 0.00 | 0.00 | 0.00 | 73 | 1012.5 |
| 20260510015035 | 14 | 6 | 3.2 | 8.0 | 0.00 | 0.00 | 0.00 | 73 | 1013.0 |
| 20260510014546 | 14 | 5 | 1.6 | 6.4 | 0.00 | 0.00 | 0.00 | 73 | 1012.1 |
| 20260510014215 | 14 | 12 | 3.2 | 4.8 | 0.00 | 0.00 | 0.00 | 73 | 1012.4 |
| 20260510014037 | 14 | 10 | 3.2 | 6.4 | 0.00 | 0.00 | 0.00 | 73 | 1013.1 |
| 20260510013243 | 14 | 11 | 1.6 | 4.8 | 0.00 | 0.00 | 0.00 | 73 | 1012.5 |
| 20260510013017 | 14 | 10 | 1.6 | 4.8 | 0.00 | 0.00 | 0.00 | 73 | 1013.1 |
| 20260510013005 | 14 | 24 | 1.6 | 4.8 | 0.00 | 0.00 | 0.00 | 73 | 1012.3 |
| 20260510012220 | 14 | 322 | 3.2 | 4.8 | 0.00 | 0.00 | 0.00 | 73 | 1012.5 |
| 20260510012017 | 15 | 12 | 3.2 | 4.8 | 0.00 | 0.00 | 0.00 | 73 | 1013.2 |
| 20260510011552 | 14 | 5 | 1.6 | 4.8 | 0.00 | 0.00 | 0.00 | 73 | 1012.3 |
| 20260510011221 | 14 | 17 | 1.6 | 4.8 | 0.00 | 0.00 | 0.00 | 73 | 1012.6 |
| 20260510011017 | 15 | 6 | 1.6 | 6.4 | 0.00 | 0.00 | 0.00 | 73 | 1013.2 |
| 20260510010236 | 15 | 36 | 1.6 | 4.8 | 0.00 | 0.00 | 0.00 | 73 | 1012.7 |
| 20260510010056 | 14 | 15 | 0.0 | 4.8 | 0.00 | 0.00 | 0.00 | 73 | 1012.4 |
| 20260510010015 | 14 | 17 | 1.6 | 4.8 | 0.00 | 0.00 | 0.00 | 73 | 1013.4 |
| 20260510005215 | 14 | 32 | 1.6 | 4.8 | 0.00 | 0.00 | 0.00 | 74 | 1012.8 |
| 20260510005017 | 14 | 23 | 1.6 | 6.4 | 0.00 | 0.00 | 0.00 | 74 | 1013.5 |
| 20260510004515 | 14 | 14 | 1.6 | 6.4 | 0.00 | 0.00 | 0.00 | 74 | 1012.5 |
| 20260510004212 | 14 | 5 | 1.6 | 3.2 | 0.00 | 0.00 | 0.00 | 74 | 1012.9 |
| 20260510004017 | 14 | 21 | 1.6 | 4.8 | 0.00 | 0.00 | 0.00 | 74 | 1013.5 |
| 20260510003230 | 14 | 9 | 3.2 | 6.4 | 0.00 | 0.00 | 0.00 | 74 | 1012.9 |
| 20260510003015 | 14 | 17 | 1.6 | 3.2 | 0.00 | 0.00 | 0.00 | 74 | 1013.7 |
| 20260510003003 | 14 | 11 | 0.0 | 4.8 | 0.00 | 0.00 | 0.00 | 74 | 1012.7 |
| 20260510002226 | 14 | 13 | 1.6 | 6.4 | 0.00 | 0.00 | 0.00 | 75 | 1013.1 |
| 20260510002017 | 14 | 11 | 1.6 | 6.4 | 0.00 | 0.00 | 0.00 | 75 | 1013.9 |
| 20260510001545 | 14 | 355 | 0.0 | 4.8 | 0.00 | 0.00 | 0.00 | 75 | 1012.9 |
| 20260510001212 | 14 | 5 | 1.6 | 4.8 | 0.00 | 0.00 | 0.00 | 75 | 1013.3 |
| 20260510001017 | 14 | 10 | 1.6 | 3.2 | 0.00 | 0.00 | 0.00 | 74 | 1014.0 |
| 20260510000212 | 15 | 31 | 1.6 | 1.6 | 0.00 | 0.00 | 0.00 | 74 | 1013.4 |
| 20260510000017 | 15 | 16 | 1.6 | 4.8 | 0.00 | 0.00 | 0.00 | 73 | 1014.2 |
| 20260510000012 | 14 | 5 | 1.6 | 4.8 | 0.00 | 0.00 | 0.00 | 74 | 1013.1 |
| 20260509235221 | 15 | 14 | 1.6 | 4.8 | 0.00 | 0.00 | 0.00 | 73 | 1013.6 |
| 20260509235017 | 15 | 14 | 1.6 | 3.2 | 0.00 | 0.00 | 0.00 | 73 | 1014.4 |
| 20260509234556 | 15 | 14 | 0.0 | 4.8 | 0.00 | 0.00 | 0.00 | 73 | 1013.4 |
| 20260509234212 | 15 | 13 | 3.2 | 4.8 | 0.00 | 0.00 | 0.00 | 72 | 1013.7 |
| 20260509234037 | 15 | 12 | 3.2 | 6.4 | 0.00 | 0.00 | 0.00 | 72 | 1014.4 |
| 20260509233223 | 15 | 13 | 1.6 | 4.8 | 0.00 | 0.00 | 0.00 | 72 | 1013.8 |
| 20260509233035 | 15 | 16 | 1.6 | 4.8 | 0.00 | 0.00 | 0.00 | 72 | 1013.4 |
| 20260509233017 | 15 | 5 | 1.6 | 4.8 | 0.00 | 0.00 | 0.00 | 72 | 1014.5 |
| 20260509232220 | 15 | 11 | 3.2 | 6.4 | 0.00 | 0.00 | 0.00 | 71 | 1013.8 |
| 20260509232037 | 15 | 20 | 3.2 | 6.4 | 0.00 | 0.00 | 0.00 | 71 | 1014.5 |
| 20260509231523 | 15 | 31 | 1.6 | 6.4 | 0.00 | 0.00 | 0.00 | 71 | 1013.5 |
| 20260509231206 | 15 | 63 | 3.2 | 6.4 | 0.00 | 0.00 | 0.00 | 71 | 1013.8 |
| 20260509231017 | 15 | 14 | 3.2 | 6.4 | 0.00 | 0.00 | 0.00 | 71 | 1014.4 |
| 20260509230222 | 15 | 40 | 3.2 | 6.4 | 0.00 | 0.00 | 0.00 | 70 | 1013.8 |
| 20260509230043 | 15 | 23 | 1.6 | 6.4 | 0.00 | 0.00 | 0.00 | 70 | 1013.5 |
| 20260509230017 | 15 | 9 | 3.2 | 6.4 | 0.00 | 0.00 | 0.00 | 70 | 1014.5 |
| 20260509225222 | 15 | 15 | 3.2 | 6.4 | 0.00 | 0.00 | 0.00 | 70 | 1013.9 |
| 20260509225017 | 16 | 16 | 3.2 | 6.4 | 0.00 | 0.00 | 0.00 | 69 | 1014.6 |
| 20260509224536 | 15 | 35 | 1.6 | 6.4 | 0.00 | 0.00 | 0.00 | 69 | 1013.6 |
| 20260509224218 | 16 | 57 | 3.2 | 6.4 | 0.00 | 0.00 | 0.00 | 69 | 1014.0 |
| 20260509224017 | 16 | 15 | 3.2 | 4.8 | 0.00 | 0.00 | 0.00 | 69 | 1014.7 |
| 20260509223230 | 16 | 78 | 3.2 | 6.4 | 0.00 | 0.00 | 0.00 | 68 | 1014.0 |
| 20260509223032 | 16 | 360 | 3.2 | 8.0 | 0.00 | 0.00 | 0.00 | 68 | 1013.7 |
| 20260509223017 | 16 | 14 | 3.2 | 8.0 | 0.00 | 0.00 | 0.00 | 68 | 1014.7 |
| 20260509222233 | 16 | 25 | 3.2 | 8.0 | 0.00 | 0.00 | 0.00 | 67 | 1014.0 |
| 20260509222017 | 16 | 7 | 3.2 | 8.0 | 0.00 | 0.00 | 0.00 | 67 | 1014.7 |
| 20260509221556 | 16 | 13 | 3.2 | 8.0 | 0.00 | 0.00 | 0.00 | 67 | 1013.7 |
| 20260509221220 | 16 | 5 | 3.2 | 4.8 | 0.00 | 0.00 | 0.00 | 67 | 1014.1 |
| 20260509221017 | 16 | 13 | 3.2 | 6.4 | 0.00 | 0.00 | 0.00 | 66 | 1014.7 |
| 20260509220218 | 16 | 15 | 3.2 | 6.4 | 0.00 | 0.00 | 0.00 | 66 | 1014.1 |
| 20260509220018 | 16 | 26 | 1.6 | 6.4 | 0.00 | 0.00 | 0.00 | 66 | 1013.8 |
| 20260509215017 | 16 | 13 | 3.2 | 6.4 | 0.00 | 0.00 | 0.00 | 65 | 1014.8 |
| 20260509214513 | 16 | 355 | 3.2 | 6.4 | 0.00 | 0.00 | 0.00 | 65 | 1013.9 |
| 20260509214230 | 16 | 355 | 3.2 | 8.0 | 0.00 | 0.00 | 0.00 | 65 | 1014.3 |
| 20260509214017 | 16 | 11 | 3.2 | 8.0 | 0.00 | 0.00 | 0.00 | 65 | 1014.9 |
| 20260509213239 | 16 | 343 | 3.2 | 8.0 | 0.00 | 0.00 | 0.00 | 65 | 1014.3 |
| 20260509213050 | 16 | 53 | 4.8 | 8.0 | 0.00 | 0.00 | 0.00 | 65 | 1014.0 |
| 20260509213017 | 16 | 12 | 4.8 | 8.0 | 0.00 | 0.00 | 0.00 | 64 | 1015.0 |
| 20260509212215 | 16 | 5 | 3.2 | 4.8 | 0.00 | 0.00 | 0.00 | 64 | 1014.4 |
| 20260509212037 | 16 | 19 | 3.2 | 4.8 | 0.00 | 0.00 | 0.00 | 64 | 1015.0 |
| 20260509211532 | 16 | 360 | 1.6 | 4.8 | 0.00 | 0.00 | 0.00 | 64 | 1014.0 |
| 20260509211217 | 16 | 17 | 3.2 | 6.4 | 0.00 | 0.00 | 0.00 | 64 | 1014.4 |
| 20260509211017 | 17 | 26 | 1.6 | 6.4 | 0.00 | 0.00 | 0.00 | 64 | 1015.0 |
| 20260509210236 | 16 | 9 | 1.6 | 4.8 | 0.00 | 0.00 | 0.00 | 64 | 1014.4 |
| 20260509210107 | 16 | 5 | 1.6 | 6.4 | 0.00 | 0.00 | 0.00 | 64 | 1014.0 |
| 20260509210017 | 17 | 14 | 1.6 | 4.8 | 0.00 | 0.00 | 0.00 | 64 | 1015.0 |
| 20260509205017 | 17 | 8 | 3.2 | 6.4 | 0.00 | 0.00 | 0.00 | 63 | 1014.9 |
| 20260509204559 | 16 | 14 | 1.6 | 6.4 | 0.00 | 0.00 | 0.00 | 63 | 1013.9 |
| 20260509204227 | 17 | 350 | 1.6 | 4.8 | 0.00 | 0.00 | 0.00 | 63 | 1014.2 |
| 20260509204017 | 17 | 16 | 1.6 | 3.2 | 0.00 | 0.00 | 0.00 | 63 | 1014.9 |
| 20260509203217 | 17 | 21 | 1.6 | 6.4 | 0.00 | 0.00 | 0.00 | 63 | 1014.2 |
| 20260509203025 | 16 | 24 | 0.0 | 4.8 | 0.00 | 0.00 | 0.00 | 63 | 1013.8 |
| 20260509203017 | 17 | 35 | 1.6 | 3.2 | 0.00 | 0.00 | 0.00 | 63 | 1014.9 |
| 20260509202517 | 16 | 13 | 1.6 | 4.8 | 0.00 | 0.00 | 0.00 | 64 | 1014.9 |
| 20260509202220 | 16 | 11 | 1.6 | 6.4 | 0.00 | 0.00 | 0.00 | 64 | 1014.3 |
| 20260509201620 | 16 | 355 | 1.6 | 6.4 | 0.00 | 0.00 | 0.00 | 64 | 1013.9 |
| 20260509201537 | 16 | 18 | 1.6 | 4.8 | 0.00 | 0.00 | 0.00 | 64 | 1015.0 |
| 20260509201221 | 16 | 5 | 1.6 | 3.2 | 0.00 | 0.00 | 0.00 | 65 | 1014.3 |
| 20260509201016 | 16 | 359 | 1.6 | 6.4 | 0.00 | 0.00 | 0.00 | 65 | 1015.0 |
| 20260509200215 | 16 | 9 | 1.6 | 4.8 | 0.00 | 0.00 | 0.00 | 65 | 1014.2 |
| 20260509200051 | 16 | 331 | 0.0 | 3.2 | 0.00 | 0.00 | 0.00 | 65 | 1013.8 |
| 20260509200017 | 16 | 347 | 1.6 | 3.2 | 0.00 | 0.00 | 0.00 | 65 | 1014.9 |
| 20260509195220 | 16 | 30 | 1.6 | 3.2 | 0.00 | 0.00 | 0.00 | 65 | 1014.2 |
| 20260509195017 | 16 | 14 | 1.6 | 4.8 | 0.00 | 0.00 | 0.00 | 65 | 1014.9 |
| 20260509194540 | 16 | 10 | 0.0 | 3.2 | 0.00 | 0.00 | 0.00 | 65 | 1013.8 |
| 20260509194516 | 16 | 35 | 1.6 | 3.2 | 0.00 | 0.00 | 0.00 | 65 | 1014.8 |
| 20260509194219 | 16 | 334 | 0.0 | 1.6 | 0.00 | 0.00 | 0.00 | 66 | 1014.2 |
| 20260509194057 | 16 | 312 | 0.0 | 1.6 | 0.00 | 0.00 | 0.00 | 66 | 1014.8 |
| 20260509193227 | 17 | 312 | 0.0 | 1.6 | 0.00 | 0.00 | 0.00 | 64 | 1014.1 |
| 20260509193049 | 17 | 312 | 0.0 | 1.6 | 0.00 | 0.00 | 0.00 | 64 | 1013.6 |
| 20260509193017 | 17 | 312 | 0.0 | 1.6 | 0.00 | 0.00 | 0.00 | 63 | 1014.7 |
| 20260509192226 | 17 | 311 | 0.0 | 1.6 | 0.00 | 0.00 | 0.00 | 63 | 1014.0 |
| 20260509192017 | 17 | 311 | 0.0 | 1.6 | 0.00 | 0.00 | 0.00 | 61 | 1014.7 |
| 20260509191537 | 17 | 311 | 0.0 | 1.6 | 0.00 | 0.00 | 0.00 | 61 | 1013.5 |
| 20260509191216 | 18 | 311 | 0.0 | 1.6 | 0.00 | 0.00 | 0.00 | 60 | 1013.9 |
| 20260509191017 | 18 | 311 | 0.0 | 1.6 | 0.00 | 0.00 | 0.00 | 60 | 1014.5 |
| 20260509190221 | 19 | 311 | 0.0 | 1.6 | 0.00 | 0.00 | 0.00 | 59 | 1013.7 |
| 20260509190053 | 18 | 311 | 0.0 | 1.6 | 0.00 | 0.00 | 0.00 | 59 | 1013.3 |
| 20260509190037 | 19 | 311 | 0.0 | 1.6 | 0.00 | 0.00 | 0.00 | 58 | 1014.5 |
| 20260509185219 | 20 | 311 | 0.0 | 3.2 | 0.00 | 0.00 | 0.00 | 57 | 1013.8 |
| 20260509185027 | 20 | 0.0 | 1.6 | 0.00 | 0.00 | 0.00 | 56 | 1014.5 | |
| 20260509184611 | 20 | 311 | 0.0 | 1.6 | 0.00 | 0.00 | 0.00 | 56 | 1013.4 |